createdAt,value
2019-05-11T00:00:02.444Z,24.97
2019-05-11T00:02:34.451Z,24.20
2019-05-11T00:05:05.687Z,22.47
2019-05-11T00:07:36.614Z,21.93
2019-05-11T00:10:08.366Z,22.53
2019-05-11T00:12:39.350Z,20.80
2019-05-11T00:15:11.306Z,21.27
2019-05-11T00:17:42.449Z,20.43
2019-05-11T00:20:16.885Z,21.60
2019-05-11T00:22:47.984Z,22.50
2019-05-11T00:25:20.243Z,20.73
2019-05-11T00:27:51.507Z,21.30
2019-05-11T00:30:22.662Z,19.53
2019-05-11T00:32:54.378Z,20.60
2019-05-11T00:35:26.259Z,20.87
2019-05-11T00:37:57.321Z,22.53
2019-05-11T00:40:28.991Z,19.83
2019-05-11T00:42:59.921Z,19.43
2019-05-11T00:45:31.153Z,19.33
2019-05-11T00:48:02.659Z,20.33
2019-05-11T00:50:39.261Z,18.87
2019-05-11T00:53:07.085Z,18.80
2019-05-11T00:55:38.820Z,18.47
2019-05-11T00:58:10.318Z,18.13
2019-05-11T01:00:41.525Z,18.30
2019-05-11T01:03:12.425Z,20.80
2019-05-11T01:05:43.553Z,21.27
2019-05-11T01:08:14.652Z,19.03
2019-05-11T01:10:45.818Z,17.63
2019-05-11T01:13:16.978Z,20.33
2019-05-11T01:15:48.014Z,20.17
2019-05-11T01:18:19.457Z,19.57
2019-05-11T01:20:50.471Z,19.60
2019-05-11T01:23:21.540Z,19.70
2019-05-11T01:25:52.673Z,21.80
2019-05-11T01:28:23.634Z,20.70
2019-05-11T01:30:54.595Z,21.33
2019-05-11T01:33:25.562Z,21.60
2019-05-11T01:35:56.509Z,20.60
2019-05-11T01:38:28.108Z,21.23
2019-05-11T01:40:59.365Z,22.77
2019-05-11T01:43:30.366Z,22.83
2019-05-11T01:46:01.329Z,22.57
2019-05-11T01:48:32.251Z,21.03
2019-05-11T01:51:03.390Z,20.90
2019-05-11T01:53:34.259Z,18.93
2019-05-11T01:56:05.534Z,19.43
2019-05-11T01:58:36.568Z,20.20
2019-05-11T02:01:07.569Z,19.27
2019-05-11T02:03:38.464Z,19.77
2019-05-11T02:06:09.423Z,19.27
2019-05-11T02:08:40.488Z,19.47
2019-05-11T02:11:16.354Z,18.83
2019-05-11T02:13:47.396Z,16.97
2019-05-11T02:16:18.434Z,19.00
2019-05-11T02:18:49.433Z,19.63
2019-05-11T02:21:20.609Z,20.43
2019-05-11T02:23:51.547Z,20.73
2019-05-11T02:26:22.655Z,20.40
2019-05-11T02:28:54.402Z,22.63
2019-05-11T02:31:25.557Z,20.23
2019-05-11T02:33:56.648Z,21.90
2019-05-11T02:36:28.339Z,20.60
2019-05-11T02:39:00.095Z,21.60
2019-05-11T02:41:36.082Z,21.77
2019-05-11T02:44:03.977Z,21.60
2019-05-11T02:46:35.923Z,23.67
2019-05-11T02:49:08.445Z,24.03
2019-05-11T02:51:41.008Z,24.33
2019-05-11T02:54:12.282Z,24.73
2019-05-11T02:56:43.316Z,25.93
2019-05-11T02:59:14.241Z,25.77
2019-05-11T03:01:45.251Z,28.03
2019-05-11T03:04:16.207Z,25.63
2019-05-11T03:06:47.898Z,26.97
2019-05-11T03:09:19.515Z,28.53
2019-05-11T03:11:55.599Z,28.90
2019-05-11T03:14:23.823Z,30.07
2019-05-11T03:17:12.282Z,31.07
2019-05-11T03:19:43.366Z,27.63
2019-05-11T03:22:14.723Z,27.27
2019-05-11T03:24:45.775Z,26.77
2019-05-11T03:27:16.855Z,26.23
2019-05-11T03:29:48.276Z,26.30
2019-05-11T03:32:19.430Z,27.23
2019-05-11T03:34:50.361Z,26.90
2019-05-11T03:37:22.030Z,24.97
2019-05-11T03:39:52.992Z,23.47
2019-05-11T03:42:24.660Z,23.37
2019-05-11T03:44:55.622Z,23.07
2019-05-11T03:47:27.178Z,23.03
2019-05-11T03:49:58.165Z,22.33
2019-05-11T03:52:29.146Z,22.83
2019-05-11T03:55:00.491Z,22.30
2019-05-11T03:57:32.245Z,21.83
2019-05-11T04:00:03.712Z,22.50
2019-05-11T04:02:34.820Z,20.63
2019-05-11T04:05:06.370Z,23.20
2019-05-11T04:07:37.777Z,22.50
2019-05-11T04:10:09.593Z,23.77
2019-05-11T04:12:40.638Z,24.47
2019-05-11T04:15:11.927Z,25.00
2019-05-11T04:17:43.624Z,23.43
2019-05-11T04:20:15.355Z,23.63
2019-05-11T04:22:46.404Z,26.43
2019-05-11T04:25:17.390Z,25.70
2019-05-11T04:27:48.424Z,24.93
2019-05-11T04:30:19.607Z,24.30
2019-05-11T04:32:50.579Z,23.93
2019-05-11T04:35:22.205Z,24.67
2019-05-11T04:37:54.089Z,24.70
2019-05-11T04:40:25.635Z,26.37
2019-05-11T04:42:57.436Z,24.47
2019-05-11T04:45:29.100Z,23.80
2019-05-11T04:48:00.221Z,24.67
2019-05-11T04:50:31.386Z,24.33
2019-05-11T04:53:02.496Z,24.53
2019-05-11T04:55:33.515Z,25.03
2019-05-11T04:58:05.308Z,24.23
2019-05-11T05:00:36.405Z,23.90
2019-05-11T05:03:08.567Z,24.40
2019-05-11T05:05:39.861Z,23.73
2019-05-11T05:08:10.974Z,24.50
2019-05-11T05:10:42.020Z,23.83
2019-05-11T05:13:13.107Z,24.83
2019-05-11T05:15:44.115Z,23.33
2019-05-11T05:18:15.285Z,24.93
2019-05-11T05:20:46.346Z,24.20
2019-05-11T05:23:17.504Z,25.60
2019-05-11T05:25:48.586Z,24.00
2019-05-11T05:28:19.966Z,24.30
2019-05-11T05:30:51.069Z,23.83
2019-05-11T05:33:22.733Z,24.80
2019-05-11T05:35:54.653Z,23.80
2019-05-11T05:38:26.694Z,23.73
2019-05-11T05:40:59.221Z,19.90
2019-05-11T05:43:31.109Z,19.53
2019-05-11T05:46:02.217Z,17.23
2019-05-11T05:48:33.845Z,18.13
2019-05-11T05:51:06.444Z,18.80
2019-05-11T05:53:38.166Z,19.27
2019-05-11T05:56:09.763Z,17.23
2019-05-11T05:58:41.676Z,18.37
2019-05-11T06:01:13.606Z,19.00
2019-05-11T06:03:45.603Z,17.83
2019-05-11T06:06:17.319Z,19.20
2019-05-11T06:08:49.061Z,18.43
2019-05-11T06:11:20.599Z,18.63
2019-05-11T06:13:52.052Z,17.20
2019-05-11T06:16:23.483Z,17.63
2019-05-11T06:18:55.363Z,16.53
2019-05-11T06:21:27.272Z,16.73
2019-05-11T06:24:05.363Z,16.60
2019-05-11T06:26:31.297Z,18.07
2019-05-11T06:29:02.442Z,16.60
2019-05-11T06:31:33.761Z,14.67
2019-05-11T06:34:05.544Z,14.33
2019-05-11T06:36:38.578Z,14.10
2019-05-11T06:39:11.287Z,13.70
2019-05-11T06:41:46.189Z,14.63
2019-05-11T06:44:18.350Z,16.20
2019-05-11T06:46:49.899Z,15.07
2019-05-11T06:49:21.121Z,13.33
2019-05-11T06:51:52.124Z,14.07
2019-05-11T06:54:23.232Z,14.10
2019-05-11T06:56:54.578Z,14.30
2019-05-11T06:59:30.126Z,14.33
2019-05-11T07:02:01.193Z,13.37
2019-05-11T07:04:32.898Z,12.10
2019-05-11T07:07:04.501Z,12.03
2019-05-11T07:09:35.656Z,10.30
2019-05-11T07:12:07.095Z,10.37
2019-05-11T07:14:38.252Z,10.67
2019-05-11T07:17:09.313Z,11.27
2019-05-11T07:19:41.128Z,12.03
2019-05-11T07:22:12.885Z,11.43
2019-05-11T07:24:45.715Z,10.77
2019-05-11T07:27:17.269Z,12.37
2019-05-11T07:29:49.027Z,11.87
2019-05-11T07:32:25.761Z,10.70
2019-05-11T07:35:01.164Z,13.07
2019-05-11T07:37:32.981Z,12.33
2019-05-11T07:40:08.098Z,11.10
2019-05-11T07:42:39.342Z,10.17
2019-05-11T07:45:12.354Z,10.83
2019-05-11T07:47:43.640Z,11.20
2019-05-11T07:50:17.928Z,10.37
2019-05-11T07:52:48.623Z,11.03
2019-05-11T07:55:21.162Z,10.67
2019-05-11T07:57:52.986Z,11.10
2019-05-11T08:00:39.591Z,11.87
2019-05-11T08:06:08.956Z,10.37
2019-05-11T08:08:40.660Z,9.63
2019-05-11T08:11:12.378Z,9.40
2019-05-11T08:13:44.899Z,9.00
2019-05-11T08:16:18.591Z,9.23
2019-05-11T08:18:50.587Z,9.73
2019-05-11T08:21:22.540Z,8.33
2019-05-11T08:23:54.220Z,9.17
2019-05-11T08:26:28.060Z,7.97
2019-05-11T08:28:59.470Z,8.17
2019-05-11T08:31:31.343Z,8.17
2019-05-11T08:34:08.844Z,7.80
2019-05-11T08:36:52.686Z,8.20
2019-05-11T08:39:24.532Z,8.23
2019-05-11T08:41:59.007Z,7.83
2019-05-11T08:44:31.026Z,7.20
2019-05-11T08:47:29.028Z,6.70
2019-05-11T08:50:00.572Z,5.80
2019-05-11T08:52:32.349Z,5.27
2019-05-11T08:55:03.939Z,5.03
2019-05-11T08:57:35.415Z,4.20
2019-05-11T09:00:08.521Z,4.90
2019-05-11T09:02:40.404Z,4.03
2019-05-11T09:05:12.215Z,4.07
2019-05-11T09:07:43.968Z,4.70
2019-05-11T09:10:18.534Z,4.57
2019-05-11T09:12:49.979Z,4.20
2019-05-11T09:15:33.666Z,3.90
2019-05-11T09:17:54.252Z,3.83
2019-05-11T09:20:28.509Z,4.07
2019-05-11T09:22:59.459Z,3.50
2019-05-11T09:25:30.626Z,3.57
2019-05-11T09:28:02.500Z,3.63
2019-05-11T09:30:33.666Z,3.80
2019-05-11T09:33:05.310Z,4.00
2019-05-11T09:35:49.298Z,4.00
2019-05-11T09:38:10.453Z,3.80
2019-05-11T09:40:42.026Z,4.03
2019-05-11T09:43:13.703Z,3.83
2019-05-11T09:45:48.632Z,4.07
2019-05-11T09:48:19.768Z,3.90
2019-05-11T09:50:51.055Z,4.37
2019-05-11T09:53:22.177Z,4.67
2019-05-11T09:55:53.160Z,4.40
2019-05-11T09:58:24.778Z,4.63
2019-05-11T10:00:58.447Z,4.93
2019-05-11T10:03:28.900Z,4.40
2019-05-11T10:06:00.097Z,4.73
2019-05-11T10:08:32.819Z,4.60
2019-05-11T10:11:04.302Z,4.60
2019-05-11T10:13:38.282Z,4.27
2019-05-11T10:16:10.738Z,4.10
2019-05-11T10:18:42.686Z,4.13
2019-05-11T10:21:14.218Z,4.00
2019-05-11T10:23:45.611Z,3.70
2019-05-11T10:26:18.787Z,6.70
2019-05-11T10:28:50.166Z,4.63
2019-05-11T10:31:21.989Z,4.00
2019-05-11T10:33:53.140Z,3.90
2019-05-11T10:36:24.096Z,12.97
2019-05-11T10:38:55.278Z,4.80
2019-05-11T10:41:28.451Z,4.63
2019-05-11T10:44:00.404Z,4.77
2019-05-11T10:46:31.616Z,4.60
2019-05-11T10:49:02.649Z,5.23
2019-05-11T10:51:34.227Z,3.80
2019-05-11T10:54:05.439Z,3.33
2019-05-11T10:56:38.834Z,3.60
2019-05-11T10:59:10.644Z,4.50
2019-05-11T11:01:41.881Z,3.70
2019-05-11T11:04:13.439Z,2.90
2019-05-11T11:06:45.138Z,2.90
2019-05-11T11:09:17.763Z,3.00
2019-05-11T11:11:49.143Z,2.93
2019-05-11T11:14:20.259Z,2.20
2019-05-11T11:16:51.436Z,2.63
2019-05-11T11:19:23.140Z,3.30
2019-05-11T11:21:54.311Z,2.90
2019-05-11T11:24:25.358Z,2.73
2019-05-11T11:26:57.642Z,3.10
2019-05-11T11:29:28.980Z,3.00
2019-05-11T11:32:00.027Z,3.67
2019-05-11T11:34:31.244Z,3.20
2019-05-11T11:37:02.477Z,3.03
2019-05-11T11:39:34.456Z,3.00
2019-05-11T11:42:05.531Z,2.87
2019-05-11T11:44:37.956Z,3.00
2019-05-11T11:47:09.715Z,2.90
2019-05-11T11:49:41.459Z,2.80
2019-05-11T11:52:13.058Z,2.97
2019-05-11T11:54:44.195Z,3.10
2019-05-11T11:57:15.647Z,3.20
2019-05-11T11:59:48.068Z,2.97
2019-05-11T12:02:19.489Z,2.50
2019-05-11T12:04:50.715Z,2.60
2019-05-11T12:07:23.091Z,2.70
2019-05-11T12:09:54.727Z,2.77
2019-05-11T12:12:27.924Z,2.60
2019-05-11T12:14:59.142Z,2.53
2019-05-11T12:17:30.277Z,2.43
2019-05-11T12:20:01.891Z,2.10
2019-05-11T12:22:33.017Z,2.30
2019-05-11T12:25:04.676Z,2.40
2019-05-11T12:27:38.078Z,2.20
2019-05-11T12:30:09.121Z,2.43
2019-05-11T12:32:45.483Z,2.20
2019-05-11T12:35:18.058Z,2.23
2019-05-11T12:37:50.211Z,2.30
2019-05-11T12:40:21.378Z,2.30
2019-05-11T12:42:52.360Z,2.77
2019-05-11T12:45:23.836Z,2.40
2019-05-11T12:47:55.046Z,2.80
2019-05-11T12:50:29.662Z,3.00
2019-05-11T12:53:00.813Z,2.57
2019-05-11T12:55:31.913Z,2.97
2019-05-11T12:58:03.517Z,2.60
2019-05-11T13:00:34.737Z,2.80
2019-05-11T13:03:07.979Z,2.70
2019-05-11T13:05:38.864Z,2.50
2019-05-11T13:08:10.715Z,2.50
2019-05-11T13:10:41.886Z,2.27
2019-05-11T13:13:12.860Z,2.47
2019-05-11T13:15:43.975Z,2.80
2019-05-11T13:18:15.028Z,2.80
2019-05-11T13:20:48.037Z,2.60
2019-05-11T13:23:18.743Z,2.40
2019-05-11T13:25:49.828Z,2.40
2019-05-11T13:28:20.811Z,2.23
2019-05-11T13:30:52.965Z,2.63
2019-05-11T13:33:23.934Z,2.40
2019-05-11T13:35:54.938Z,2.80
2019-05-11T13:38:28.122Z,2.60
2019-05-11T13:40:59.447Z,2.23
2019-05-11T13:43:31.186Z,2.40
2019-05-11T13:46:02.917Z,2.10
2019-05-11T13:48:34.100Z,2.67
2019-05-11T13:51:05.796Z,2.80
2019-05-11T13:53:37.770Z,2.50
2019-05-11T13:56:09.527Z,2.33
2019-05-11T13:58:40.524Z,4.10
2019-05-11T14:01:11.623Z,2.77
2019-05-11T14:03:42.705Z,3.30
2019-05-11T14:06:13.855Z,2.60
2019-05-11T14:08:48.144Z,2.70
2019-05-11T14:11:19.296Z,2.70
2019-05-11T14:13:50.285Z,2.80
2019-05-11T14:16:21.749Z,2.60
2019-05-11T14:18:53.108Z,2.27
2019-05-11T14:21:24.405Z,2.30
2019-05-11T14:23:55.650Z,2.03
2019-05-11T14:26:28.055Z,2.30
2019-05-11T14:28:59.197Z,2.70
2019-05-11T14:31:31.269Z,1.97
2019-05-11T14:34:02.377Z,2.00
2019-05-11T14:36:33.509Z,2.33
2019-05-11T14:39:08.387Z,2.20
2019-05-11T14:41:40.755Z,1.80
2019-05-11T14:44:11.824Z,2.03
2019-05-11T14:46:43.089Z,2.00
2019-05-11T14:49:14.261Z,1.77
2019-05-11T14:51:45.490Z,1.90
2019-05-11T14:54:18.731Z,2.27
2019-05-11T14:56:50.909Z,1.63
2019-05-11T14:59:22.656Z,1.90
2019-05-11T15:01:53.979Z,2.13
2019-05-11T15:04:30.978Z,2.20
2019-05-11T15:07:08.377Z,1.93
2019-05-11T15:09:41.615Z,1.70
2019-05-11T15:12:17.980Z,1.70
2019-05-11T15:14:50.257Z,1.30
2019-05-11T15:17:24.021Z,1.43
2019-05-11T15:20:00.630Z,1.80
2019-05-11T15:22:34.388Z,1.73
2019-05-11T15:25:08.034Z,2.20
2019-05-11T15:27:41.567Z,1.90
2019-05-11T15:30:18.056Z,1.70
2019-05-11T15:32:50.793Z,2.00
2019-05-11T15:35:28.468Z,2.70
2019-05-11T15:38:02.671Z,2.00
2019-05-11T15:40:41.763Z,1.80
2019-05-11T15:43:18.532Z,2.17
2019-05-11T15:45:51.333Z,2.10
2019-05-11T15:48:28.062Z,2.13
2019-05-11T15:51:01.054Z,1.90
2019-05-11T15:53:34.484Z,2.20
2019-05-11T15:56:08.598Z,1.90
2019-05-11T15:58:40.348Z,2.00
2019-05-11T16:01:12.100Z,2.43
2019-05-11T16:03:43.811Z,1.93
2019-05-11T16:06:18.319Z,1.90
2019-05-11T16:08:51.162Z,1.67
2019-05-11T16:11:22.931Z,2.20
2019-05-11T16:13:58.548Z,2.80
2019-05-11T16:16:30.615Z,3.27
2019-05-11T16:19:11.675Z,2.50
2019-05-11T16:21:38.123Z,2.07
2019-05-11T16:24:10.844Z,3.30
2019-05-11T16:26:43.011Z,5.60
2019-05-11T16:29:18.548Z,2.10
2019-05-11T16:31:49.857Z,2.50
2019-05-11T16:34:22.380Z,2.47
2019-05-11T16:36:55.048Z,2.67
2019-05-11T16:39:27.976Z,1.93
2019-05-11T16:42:01.379Z,3.00
2019-05-11T16:44:37.738Z,2.70
2019-05-11T16:47:08.613Z,2.73
2019-05-11T16:49:40.764Z,2.70
2019-05-11T16:52:12.765Z,2.60
2019-05-11T16:57:38.037Z,2.50
2019-05-11T17:00:11.004Z,5.47
2019-05-11T17:02:42.804Z,3.77
2019-05-11T17:05:25.780Z,4.70
2019-05-11T17:07:48.297Z,3.23
2019-05-11T17:10:20.405Z,2.57
2019-05-11T17:12:52.610Z,3.90
2019-05-11T17:15:24.292Z,3.10
2019-05-11T17:17:55.885Z,2.40
2019-05-11T17:20:27.886Z,2.40
2019-05-11T17:22:59.490Z,2.60
2019-05-11T17:25:31.086Z,2.50
2019-05-11T17:28:02.651Z,3.03
2019-05-11T17:30:34.135Z,3.43
2019-05-11T17:33:05.507Z,3.30
2019-05-11T17:35:36.927Z,4.67
2019-05-11T17:38:08.382Z,4.60
2019-05-11T17:40:39.672Z,4.20
2019-05-11T17:43:11.460Z,4.43
2019-05-11T17:45:43.014Z,3.27
2019-05-11T17:48:14.603Z,3.20
2019-05-11T17:50:45.925Z,3.50
2019-05-11T17:53:18.232Z,3.87
2019-05-11T17:55:49.816Z,3.90
2019-05-11T17:58:21.410Z,3.00
2019-05-11T18:00:53.045Z,3.57
2019-05-11T18:03:27.686Z,3.40
2019-05-11T18:05:59.504Z,3.33
2019-05-11T18:08:32.614Z,3.50
2019-05-11T18:11:04.173Z,3.60
2019-05-11T18:13:38.971Z,3.63
2019-05-11T18:16:12.411Z,4.10
2019-05-11T18:18:45.232Z,4.37
2019-05-11T18:21:18.819Z,4.27
2019-05-11T18:23:49.928Z,3.80
2019-05-11T18:26:22.132Z,4.10
2019-05-11T18:28:53.711Z,7.33
2019-05-11T18:31:25.904Z,5.67
2019-05-11T18:33:59.204Z,4.73
2019-05-11T18:36:31.613Z,4.17
2019-05-11T18:39:05.574Z,4.57
2019-05-11T18:41:39.159Z,4.20
2019-05-11T18:44:10.365Z,4.53
2019-05-11T18:46:45.093Z,4.13
2019-05-11T18:49:17.899Z,4.40
2019-05-11T18:51:49.731Z,4.13
2019-05-11T18:54:21.405Z,4.30
2019-05-11T18:56:52.772Z,4.37
2019-05-11T18:59:23.974Z,4.30
2019-05-11T19:01:55.655Z,4.33
2019-05-11T19:04:28.738Z,4.33
2019-05-11T19:07:13.087Z,4.40
2019-05-11T19:09:33.791Z,4.40
2019-05-11T19:12:05.100Z,3.87
2019-05-11T19:14:38.599Z,4.57
2019-05-11T19:17:09.767Z,5.00
2019-05-11T19:19:41.014Z,5.10
2019-05-11T19:22:12.048Z,5.50
2019-05-11T19:24:43.955Z,6.70
2019-05-11T19:27:15.513Z,6.60
2019-05-11T19:29:48.404Z,7.23
2019-05-11T19:32:19.591Z,10.13
2019-05-11T19:34:50.561Z,9.97
2019-05-11T19:37:21.459Z,8.80
2019-05-11T19:39:52.553Z,8.30
2019-05-11T19:42:23.671Z,7.90
2019-05-11T19:44:55.697Z,8.43
2019-05-11T19:47:28.235Z,8.30
2019-05-11T19:49:59.339Z,9.27
2019-05-11T19:52:31.217Z,9.97
2019-05-11T19:55:02.899Z,10.30
2019-05-11T19:57:34.107Z,10.90
2019-05-11T20:00:07.866Z,11.20
2019-05-11T20:02:39.125Z,11.63
2019-05-11T20:05:10.534Z,13.57
2019-05-11T20:07:41.697Z,12.40
2019-05-11T20:10:12.762Z,12.27
2019-05-11T20:12:43.741Z,13.80
2019-05-11T20:15:15.099Z,12.40
2019-05-11T20:17:48.640Z,12.80
2019-05-11T20:20:20.478Z,15.13
2019-05-11T20:22:51.625Z,15.17
2019-05-11T20:25:22.863Z,14.83
2019-05-11T20:27:53.897Z,14.53
2019-05-11T20:30:25.239Z,13.43
2019-05-11T20:32:56.228Z,13.33
2019-05-11T20:35:27.994Z,13.33
2019-05-11T20:38:00.661Z,14.63
2019-05-11T20:40:38.330Z,14.70
2019-05-11T20:43:09.498Z,14.07
2019-05-11T20:45:40.712Z,16.43
2019-05-11T20:48:11.857Z,14.60
2019-05-11T20:50:43.039Z,68.77
2019-05-11T20:53:14.516Z,30.67
2019-05-11T20:55:47.912Z,14.73
2019-05-11T20:58:19.167Z,13.20
2019-05-11T21:00:51.346Z,15.07
2019-05-11T21:03:23.008Z,16.10
2019-05-11T21:05:54.285Z,14.83
2019-05-11T21:08:28.489Z,15.53
2019-05-11T21:10:59.672Z,13.23
2019-05-11T21:13:30.618Z,13.07
2019-05-11T21:16:01.758Z,11.00
2019-05-11T21:18:32.842Z,12.33
2019-05-11T21:21:04.063Z,12.33
2019-05-11T21:23:35.164Z,13.50
2019-05-11T21:26:09.762Z,12.73
2019-05-11T21:28:39.047Z,12.80
2019-05-11T21:31:10.238Z,13.77
2019-05-11T21:33:41.463Z,14.13
2019-05-11T21:36:12.573Z,13.83
2019-05-11T21:38:43.638Z,15.97
2019-05-11T21:41:14.711Z,14.33
2019-05-11T21:43:48.338Z,14.50
2019-05-11T21:46:19.369Z,16.57
2019-05-11T21:48:50.242Z,16.43
2019-05-11T21:51:21.398Z,18.23
2019-05-11T21:53:52.377Z,18.20
2019-05-11T21:56:23.445Z,19.60
2019-05-11T21:58:54.456Z,18.07
2019-05-11T22:01:27.878Z,19.90
2019-05-11T22:03:59.502Z,22.63
2019-05-11T22:06:33.624Z,19.13
2019-05-11T22:09:08.248Z,21.03
2019-05-11T22:11:39.473Z,21.27
2019-05-11T22:14:10.468Z,21.30
2019-05-11T22:16:41.693Z,22.60
2019-05-11T22:19:12.688Z,24.60
2019-05-11T22:21:43.753Z,23.20
2019-05-11T22:24:14.860Z,24.97
2019-05-11T22:26:45.924Z,23.97
2019-05-11T22:29:18.188Z,22.50
2019-05-11T22:31:49.184Z,21.97
2019-05-11T22:34:20.211Z,22.97
2019-05-11T22:36:52.286Z,22.23
2019-05-11T22:39:23.476Z,22.50
2019-05-11T22:41:54.714Z,22.77
2019-05-11T22:44:27.770Z,22.20
2019-05-11T22:46:59.204Z,21.03
2019-05-11T22:49:33.020Z,23.73
2019-05-11T22:52:04.179Z,23.97
2019-05-11T22:54:35.238Z,23.33
2019-05-11T22:57:08.108Z,23.57
2019-05-11T22:59:38.890Z,23.67
2019-05-11T23:02:10.841Z,22.80
2019-05-11T23:04:42.037Z,22.13
2019-05-11T23:07:14.071Z,22.93
2019-05-11T23:09:45.363Z,25.43
2019-05-11T23:12:17.983Z,25.43
2019-05-11T23:15:08.047Z,26.50
2019-05-11T23:17:39.105Z,24.70
2019-05-11T23:20:11.561Z,25.30
2019-05-11T23:22:56.923Z,22.27
2019-05-11T23:25:21.205Z,22.20
2019-05-11T23:27:52.445Z,22.80
2019-05-11T23:30:23.614Z,23.27
2019-05-11T23:32:54.656Z,26.67
2019-05-11T23:35:28.608Z,26.07
2019-05-11T23:37:59.370Z,26.30
2019-05-11T23:40:30.551Z,31.80
2019-05-11T23:43:01.733Z,29.17
2019-05-11T23:45:32.686Z,25.97
2019-05-11T23:48:03.713Z,22.37
2019-05-11T23:50:34.549Z,19.43
2019-05-11T23:53:07.521Z,16.37
2019-05-11T23:55:38.344Z,17.63
2019-05-11T23:58:09.377Z,17.87
